Whaley Lake, New York
Current Conditions -  °F | °C
As of 1:53 PM on Thursday 30 Oct 2014 (Local Time) from KPOU Reporting Station
Broken Clouds Broken Clouds  
Wind Chill: 57°   Ceiling: 5500
Heat Index: 57°   Visibility: 10mi
Dew Point: 35°   Wind: 0mph
Humidity: 44%   Direction: NA
Pressure: 29.96"   Gusts: NA
Location:  41.5306°N, 73.6674°W
Report Text: KPOU 301753Z 00000KT 10SM BKN055 14/02 A2996 RMK AO2 SLP143 T01390017 10139 20050 58009
Loading
Personal Weather Stations






























Interactive Weather Map
Tropical Storm Tracking
New forecast layout! Learn more

10-Day Weather Forecast

Advertisements
Track Severe Weather on mobile